sensor_id;sensor_type;location;lat;lon;timestamp;P1;durP1;ratioP1;P2;durP2;ratioP2
21903;SDS011;11116;51.554;7.812;2022-09-16T00:01:00;7.10;;;2.05;;
21903;SDS011;11116;51.554;7.812;2022-09-16T00:03:34;3.80;;;1.20;;
21903;SDS011;11116;51.554;7.812;2022-09-16T00:06:01;4.80;;;2.20;;
21903;SDS011;11116;51.554;7.812;2022-09-16T00:08:28;2.78;;;1.40;;
21903;SDS011;11116;51.554;7.812;2022-09-16T00:10:59;4.90;;;1.70;;
21903;SDS011;11116;51.554;7.812;2022-09-16T00:13:26;5.30;;;1.50;;
21903;SDS011;11116;51.554;7.812;2022-09-16T00:15:53;5.38;;;1.38;;
21903;SDS011;11116;51.554;7.812;2022-09-16T00:18:20;3.15;;;1.58;;
21903;SDS011;11116;51.554;7.812;2022-09-16T00:20:47;4.07;;;1.55;;
21903;SDS011;11116;51.554;7.812;2022-09-16T00:23:15;4.65;;;1.33;;
21903;SDS011;11116;51.554;7.812;2022-09-16T00:25:43;3.33;;;1.27;;
21903;SDS011;11116;51.554;7.812;2022-09-16T00:28:11;5.40;;;1.58;;
21903;SDS011;11116;51.554;7.812;2022-09-16T00:30:38;4.57;;;1.48;;
21903;SDS011;11116;51.554;7.812;2022-09-16T00:33:05;1.88;;;1.15;;
21903;SDS011;11116;51.554;7.812;2022-09-16T00:35:32;6.32;;;1.25;;
21903;SDS011;11116;51.554;7.812;2022-09-16T00:37:58;3.20;;;1.35;;
21903;SDS011;11116;51.554;7.812;2022-09-16T00:40:25;7.03;;;1.50;;
21903;SDS011;11116;51.554;7.812;2022-09-16T00:42:52;1.80;;;1.15;;
21903;SDS011;11116;51.554;7.812;2022-09-16T00:45:21;6.63;;;1.55;;
21903;SDS011;11116;51.554;7.812;2022-09-16T00:47:50;2.72;;;1.10;;
21903;SDS011;11116;51.554;7.812;2022-09-16T00:50:19;4.80;;;1.30;;
21903;SDS011;11116;51.554;7.812;2022-09-16T00:52:48;3.42;;;1.33;;
21903;SDS011;11116;51.554;7.812;2022-09-16T00:55:20;4.97;;;1.48;;
21903;SDS011;11116;51.554;7.812;2022-09-16T00:57:51;3.13;;;1.42;;
21903;SDS011;11116;51.554;7.812;2022-09-16T01:00:23;6.07;;;1.38;;
21903;SDS011;11116;51.554;7.812;2022-09-16T01:02:49;3.63;;;1.20;;
21903;SDS011;11116;51.554;7.812;2022-09-16T01:05:17;3.58;;;1.30;;
21903;SDS011;11116;51.554;7.812;2022-09-16T01:07:47;4.40;;;1.20;;
21903;SDS011;11116;51.554;7.812;2022-09-16T01:10:16;4.72;;;1.52;;
21903;SDS011;11116;51.554;7.812;2022-09-16T01:12:46;7.68;;;2.00;;
21903;SDS011;11116;51.554;7.812;2022-09-16T01:15:16;8.38;;;2.20;;
21903;SDS011;11116;51.554;7.812;2022-09-16T01:17:51;3.95;;;1.80;;
21903;SDS011;11116;51.554;7.812;2022-09-16T01:23:35;7.28;;;2.35;;
21903;SDS011;11116;51.554;7.812;2022-09-16T01:29:34;7.32;;;2.63;;
21903;SDS011;11116;51.554;7.812;2022-09-16T01:32:15;6.30;;;2.10;;
21903;SDS011;11116;51.554;7.812;2022-09-16T01:34:52;5.18;;;2.28;;
21903;SDS011;11116;51.554;7.812;2022-09-16T01:37:31;6.65;;;2.28;;
21903;SDS011;11116;51.554;7.812;2022-09-16T01:40:06;7.60;;;2.38;;
21903;SDS011;11116;51.554;7.812;2022-09-16T01:42:38;7.40;;;3.22;;
21903;SDS011;11116;51.554;7.812;2022-09-16T01:45:13;3.78;;;2.17;;
21903;SDS011;11116;51.554;7.812;2022-09-16T01:47:49;7.65;;;2.25;;
21903;SDS011;11116;51.554;7.812;2022-09-16T01:50:22;5.05;;;2.22;;
21903;SDS011;11116;51.554;7.812;2022-09-16T01:52:55;9.90;;;2.50;;
21903;SDS011;11116;51.554;7.812;2022-09-16T01:55:30;3.78;;;1.77;;
21903;SDS011;11116;51.554;7.812;2022-09-16T01:58:02;4.38;;;2.80;;
21903;SDS011;11116;51.554;7.812;2022-09-16T02:00:36;5.78;;;2.00;;
21903;SDS011;11116;51.554;7.812;2022-09-16T02:03:09;5.88;;;2.95;;
21903;SDS011;11116;51.554;7.812;2022-09-16T02:05:41;7.88;;;2.40;;
21903;SDS011;11116;51.554;7.812;2022-09-16T02:08:14;4.25;;;2.40;;
21903;SDS011;11116;51.554;7.812;2022-09-16T02:10:46;6.85;;;2.55;;
21903;SDS011;11116;51.554;7.812;2022-09-16T02:13:17;5.85;;;2.75;;
21903;SDS011;11116;51.554;7.812;2022-09-16T02:15:49;5.90;;;2.90;;
21903;SDS011;11116;51.554;7.812;2022-09-16T02:18:21;6.47;;;2.55;;
21903;SDS011;11116;51.554;7.812;2022-09-16T02:20:51;7.97;;;2.47;;
21903;SDS011;11116;51.554;7.812;2022-09-16T02:23:22;8.13;;;2.63;;
21903;SDS011;11116;51.554;7.812;2022-09-16T02:25:53;5.38;;;2.67;;
21903;SDS011;11116;51.554;7.812;2022-09-16T02:28:21;7.40;;;2.60;;
21903;SDS011;11116;51.554;7.812;2022-09-16T02:30:51;8.60;;;3.00;;
21903;SDS011;11116;51.554;7.812;2022-09-16T02:33:24;6.93;;;3.22;;
21903;SDS011;11116;51.554;7.812;2022-09-16T02:35:57;5.68;;;2.72;;
21903;SDS011;11116;51.554;7.812;2022-09-16T02:38:28;5.25;;;2.83;;
21903;SDS011;11116;51.554;7.812;2022-09-16T02:41:00;6.63;;;2.70;;
21903;SDS011;11116;51.554;7.812;2022-09-16T02:43:28;6.50;;;3.30;;
21903;SDS011;11116;51.554;7.812;2022-09-16T02:45:57;8.98;;;2.75;;
21903;SDS011;11116;51.554;7.812;2022-09-16T02:48:35;7.07;;;3.10;;
21903;SDS011;11116;51.554;7.812;2022-09-16T02:51:13;6.20;;;2.85;;
21903;SDS011;11116;51.554;7.812;2022-09-16T02:53:46;4.47;;;2.85;;
21903;SDS011;11116;51.554;7.812;2022-09-16T02:56:20;12.85;;;3.22;;
21903;SDS011;11116;51.554;7.812;2022-09-16T02:58:51;8.95;;;2.88;;
21903;SDS011;11116;51.554;7.812;2022-09-16T03:01:18;7.18;;;2.85;;
21903;SDS011;11116;51.554;7.812;2022-09-16T03:03:47;10.00;;;4.15;;
21903;SDS011;11116;51.554;7.812;2022-09-16T03:06:16;5.90;;;2.72;;
21903;SDS011;11116;51.554;7.812;2022-09-16T03:08:45;5.07;;;2.60;;
21903;SDS011;11116;51.554;7.812;2022-09-16T03:11:21;7.90;;;2.55;;
21903;SDS011;11116;51.554;7.812;2022-09-16T03:13:58;6.35;;;2.80;;
21903;SDS011;11116;51.554;7.812;2022-09-16T03:16:35;3.80;;;2.65;;
21903;SDS011;11116;51.554;7.812;2022-09-16T03:19:13;7.95;;;2.75;;
21903;SDS011;11116;51.554;7.812;2022-09-16T03:21:50;6.72;;;3.00;;
21903;SDS011;11116;51.554;7.812;2022-09-16T03:24:26;6.25;;;2.88;;
21903;SDS011;11116;51.554;7.812;2022-09-16T03:26:58;10.27;;;2.92;;
21903;SDS011;11116;51.554;7.812;2022-09-16T03:29:32;7.00;;;2.75;;
21903;SDS011;11116;51.554;7.812;2022-09-16T03:32:04;6.10;;;2.42;;
21903;SDS011;11116;51.554;7.812;2022-09-16T03:34:44;15.60;;;3.13;;
21903;SDS011;11116;51.554;7.812;2022-09-16T03:37:16;8.73;;;2.30;;
21903;SDS011;11116;51.554;7.812;2022-09-16T03:39:47;6.28;;;2.72;;
21903;SDS011;11116;51.554;7.812;2022-09-16T03:42:17;7.45;;;2.40;;
21903;SDS011;11116;51.554;7.812;2022-09-16T03:44:45;4.25;;;2.05;;
21903;SDS011;11116;51.554;7.812;2022-09-16T03:47:12;4.70;;;1.98;;
21903;SDS011;11116;51.554;7.812;2022-09-16T03:49:39;6.13;;;2.13;;
21903;SDS011;11116;51.554;7.812;2022-09-16T03:52:07;7.55;;;2.33;;
21903;SDS011;11116;51.554;7.812;2022-09-16T03:54:35;4.10;;;1.58;;
21903;SDS011;11116;51.554;7.812;2022-09-16T03:57:02;4.05;;;1.88;;
21903;SDS011;11116;51.554;7.812;2022-09-16T03:59:29;3.63;;;2.22;;
21903;SDS011;11116;51.554;7.812;2022-09-16T04:01:56;5.50;;;2.45;;
21903;SDS011;11116;51.554;7.812;2022-09-16T04:04:23;7.35;;;2.20;;
21903;SDS011;11116;51.554;7.812;2022-09-16T04:06:50;6.80;;;2.35;;
21903;SDS011;11116;51.554;7.812;2022-09-16T04:09:18;9.45;;;2.53;;
21903;SDS011;11116;51.554;7.812;2022-09-16T04:11:45;8.95;;;2.60;;
21903;SDS011;11116;51.554;7.812;2022-09-16T04:14:12;6.45;;;2.60;;
21903;SDS011;11116;51.554;7.812;2022-09-16T04:16:39;6.85;;;2.10;;
21903;SDS011;11116;51.554;7.812;2022-09-16T04:19:06;9.25;;;2.55;;
21903;SDS011;11116;51.554;7.812;2022-09-16T04:21:32;4.40;;;2.10;;
21903;SDS011;11116;51.554;7.812;2022-09-16T04:23:59;10.55;;;2.10;;
21903;SDS011;11116;51.554;7.812;2022-09-16T04:26:28;7.07;;;2.17;;
21903;SDS011;11116;51.554;7.812;2022-09-16T04:28:55;8.32;;;2.70;;
21903;SDS011;11116;51.554;7.812;2022-09-16T04:31:22;7.97;;;1.98;;
21903;SDS011;11116;51.554;7.812;2022-09-16T04:33:48;8.50;;;2.95;;
21903;SDS011;11116;51.554;7.812;2022-09-16T04:36:16;6.25;;;2.53;;
21903;SDS011;11116;51.554;7.812;2022-09-16T04:38:45;5.07;;;2.10;;
21903;SDS011;11116;51.554;7.812;2022-09-16T04:41:13;6.65;;;2.28;;
21903;SDS011;11116;51.554;7.812;2022-09-16T04:43:44;5.40;;;2.20;;
21903;SDS011;11116;51.554;7.812;2022-09-16T04:46:11;6.28;;;2.17;;
21903;SDS011;11116;51.554;7.812;2022-09-16T04:48:39;2.70;;;1.75;;
21903;SDS011;11116;51.554;7.812;2022-09-16T04:51:06;6.25;;;2.42;;
21903;SDS011;11116;51.554;7.812;2022-09-16T04:53:35;3.35;;;1.85;;
21903;SDS011;11116;51.554;7.812;2022-09-16T04:56:03;6.28;;;2.20;;
21903;SDS011;11116;51.554;7.812;2022-09-16T04:58:31;8.52;;;2.50;;
21903;SDS011;11116;51.554;7.812;2022-09-16T05:01:03;3.83;;;2.05;;
21903;SDS011;11116;51.554;7.812;2022-09-16T05:03:31;6.03;;;2.05;;
21903;SDS011;11116;51.554;7.812;2022-09-16T05:06:06;10.25;;;2.60;;
21903;SDS011;11116;51.554;7.812;2022-09-16T05:08:34;9.23;;;2.38;;
21903;SDS011;11116;51.554;7.812;2022-09-16T05:11:02;6.72;;;2.25;;
21903;SDS011;11116;51.554;7.812;2022-09-16T05:13:33;5.38;;;2.25;;
21903;SDS011;11116;51.554;7.812;2022-09-16T05:16:00;4.45;;;2.10;;
21903;SDS011;11116;51.554;7.812;2022-09-16T05:18:30;7.93;;;2.22;;
21903;SDS011;11116;51.554;7.812;2022-09-16T05:20:57;6.32;;;2.28;;
21903;SDS011;11116;51.554;7.812;2022-09-16T05:23:25;5.95;;;2.35;;
21903;SDS011;11116;51.554;7.812;2022-09-16T05:25:52;5.32;;;2.47;;
21903;SDS011;11116;51.554;7.812;2022-09-16T05:28:20;6.70;;;2.55;;
21903;SDS011;11116;51.554;7.812;2022-09-16T05:30:47;7.40;;;2.00;;
21903;SDS011;11116;51.554;7.812;2022-09-16T05:33:14;10.20;;;2.72;;
21903;SDS011;11116;51.554;7.812;2022-09-16T05:35:42;10.32;;;3.05;;
21903;SDS011;11116;51.554;7.812;2022-09-16T05:38:10;8.80;;;2.70;;
21903;SDS011;11116;51.554;7.812;2022-09-16T05:40:37;3.90;;;2.50;;
21903;SDS011;11116;51.554;7.812;2022-09-16T05:43:04;8.55;;;3.22;;
21903;SDS011;11116;51.554;7.812;2022-09-16T05:45:31;9.95;;;2.83;;
21903;SDS011;11116;51.554;7.812;2022-09-16T05:47:58;10.70;;;2.75;;
21903;SDS011;11116;51.554;7.812;2022-09-16T05:50:25;7.63;;;3.17;;
21903;SDS011;11116;51.554;7.812;2022-09-16T05:52:53;7.63;;;2.70;;
21903;SDS011;11116;51.554;7.812;2022-09-16T05:55:20;8.63;;;2.22;;
21903;SDS011;11116;51.554;7.812;2022-09-16T05:57:47;6.30;;;2.50;;
21903;SDS011;11116;51.554;7.812;2022-09-16T06:00:14;7.18;;;2.88;;
21903;SDS011;11116;51.554;7.812;2022-09-16T06:02:41;6.45;;;2.85;;
21903;SDS011;11116;51.554;7.812;2022-09-16T06:05:08;7.03;;;2.28;;
21903;SDS011;11116;51.554;7.812;2022-09-16T06:07:35;9.13;;;2.78;;
21903;SDS011;11116;51.554;7.812;2022-09-16T06:10:03;7.25;;;2.97;;
21903;SDS011;11116;51.554;7.812;2022-09-16T06:12:31;3.85;;;2.40;;
21903;SDS011;11116;51.554;7.812;2022-09-16T06:14:58;6.75;;;2.50;;
21903;SDS011;11116;51.554;7.812;2022-09-16T06:17:25;10.77;;;2.85;;
21903;SDS011;11116;51.554;7.812;2022-09-16T06:19:52;5.78;;;3.28;;
21903;SDS011;11116;51.554;7.812;2022-09-16T06:22:19;8.30;;;2.63;;
21903;SDS011;11116;51.554;7.812;2022-09-16T06:24:46;6.15;;;2.88;;
21903;SDS011;11116;51.554;7.812;2022-09-16T06:27:15;8.05;;;3.22;;
21903;SDS011;11116;51.554;7.812;2022-09-16T06:29:42;4.30;;;2.65;;
21903;SDS011;11116;51.554;7.812;2022-09-16T06:32:09;6.18;;;2.20;;
21903;SDS011;11116;51.554;7.812;2022-09-16T06:34:36;2.42;;;1.98;;
21903;SDS011;11116;51.554;7.812;2022-09-16T06:37:03;2.42;;;1.40;;
21903;SDS011;11116;51.554;7.812;2022-09-16T06:39:29;6.78;;;1.92;;
21903;SDS011;11116;51.554;7.812;2022-09-16T06:41:56;1.98;;;1.25;;
21903;SDS011;11116;51.554;7.812;2022-09-16T06:44:40;3.47;;;2.08;;
21903;SDS011;11116;51.554;7.812;2022-09-16T06:47:07;2.42;;;1.10;;
21903;SDS011;11116;51.554;7.812;2022-09-16T06:49:33;4.40;;;1.10;;
21903;SDS011;11116;51.554;7.812;2022-09-16T06:52:00;2.75;;;1.55;;
21903;SDS011;11116;51.554;7.812;2022-09-16T06:54:27;1.95;;;1.00;;
21903;SDS011;11116;51.554;7.812;2022-09-16T06:56:54;1.55;;;1.08;;
21903;SDS011;11116;51.554;7.812;2022-09-16T06:59:21;3.22;;;1.20;;
21903;SDS011;11116;51.554;7.812;2022-09-16T07:01:50;2.70;;;1.30;;
21903;SDS011;11116;51.554;7.812;2022-09-16T07:04:17;3.10;;;1.00;;
21903;SDS011;11116;51.554;7.812;2022-09-16T07:06:43;1.55;;;1.25;;
21903;SDS011;11116;51.554;7.812;2022-09-16T07:09:11;2.28;;;1.38;;
21903;SDS011;11116;51.554;7.812;2022-09-16T07:11:38;2.20;;;2.00;;
21903;SDS011;11116;51.554;7.812;2022-09-16T07:14:06;5.35;;;1.77;;
21903;SDS011;11116;51.554;7.812;2022-09-16T07:16:33;4.70;;;1.85;;
21903;SDS011;11116;51.554;7.812;2022-09-16T07:19:02;4.38;;;1.85;;
21903;SDS011;11116;51.554;7.812;2022-09-16T07:21:29;4.25;;;2.15;;
21903;SDS011;11116;51.554;7.812;2022-09-16T07:23:56;4.45;;;1.67;;
21903;SDS011;11116;51.554;7.812;2022-09-16T07:26:26;4.97;;;2.08;;
21903;SDS011;11116;51.554;7.812;2022-09-16T07:28:54;17.17;;;3.13;;
21903;SDS011;11116;51.554;7.812;2022-09-16T07:31:24;50.42;;;11.55;;
21903;SDS011;11116;51.554;7.812;2022-09-16T07:33:53;14.55;;;2.90;;
21903;SDS011;11116;51.554;7.812;2022-09-16T07:36:23;2.90;;;2.05;;
21903;SDS011;11116;51.554;7.812;2022-09-16T07:38:53;4.53;;;1.92;;
21903;SDS011;11116;51.554;7.812;2022-09-16T07:41:23;4.60;;;2.22;;
21903;SDS011;11116;51.554;7.812;2022-09-16T07:43:52;3.53;;;1.85;;
21903;SDS011;11116;51.554;7.812;2022-09-16T07:46:20;9.82;;;2.65;;
21903;SDS011;11116;51.554;7.812;2022-09-16T07:48:47;4.82;;;2.40;;
21903;SDS011;11116;51.554;7.812;2022-09-16T07:51:15;6.40;;;3.00;;
21903;SDS011;11116;51.554;7.812;2022-09-16T07:53:45;3.03;;;1.90;;
21903;SDS011;11116;51.554;7.812;2022-09-16T07:56:14;3.58;;;1.70;;
21903;SDS011;11116;51.554;7.812;2022-09-16T07:58:43;6.07;;;1.85;;
21903;SDS011;11116;51.554;7.812;2022-09-16T08:01:11;9.63;;;2.38;;
21903;SDS011;11116;51.554;7.812;2022-09-16T08:03:39;4.97;;;2.05;;
21903;SDS011;11116;51.554;7.812;2022-09-16T08:06:07;3.97;;;1.73;;
21903;SDS011;11116;51.554;7.812;2022-09-16T08:08:36;7.97;;;2.35;;
21903;SDS011;11116;51.554;7.812;2022-09-16T08:11:04;9.73;;;1.70;;
21903;SDS011;11116;51.554;7.812;2022-09-16T08:13:32;3.83;;;2.08;;
21903;SDS011;11116;51.554;7.812;2022-09-16T08:16:01;3.45;;;2.00;;
21903;SDS011;11116;51.554;7.812;2022-09-16T08:18:28;5.43;;;2.00;;
21903;SDS011;11116;51.554;7.812;2022-09-16T08:20:56;6.90;;;1.77;;
21903;SDS011;11116;51.554;7.812;2022-09-16T08:23:23;5.03;;;1.55;;
21903;SDS011;11116;51.554;7.812;2022-09-16T08:25:55;5.25;;;1.58;;
21903;SDS011;11116;51.554;7.812;2022-09-16T08:28:24;9.20;;;2.00;;
21903;SDS011;11116;51.554;7.812;2022-09-16T08:30:52;3.50;;;1.63;;
21903;SDS011;11116;51.554;7.812;2022-09-16T08:33:19;6.53;;;1.83;;
21903;SDS011;11116;51.554;7.812;2022-09-16T08:35:56;1.92;;;1.00;;
21903;SDS011;11116;51.554;7.812;2022-09-16T08:38:23;3.00;;;1.75;;
21903;SDS011;11116;51.554;7.812;2022-09-16T08:40:50;4.30;;;1.52;;
21903;SDS011;11116;51.554;7.812;2022-09-16T08:43:21;4.80;;;1.50;;
21903;SDS011;11116;51.554;7.812;2022-09-16T08:45:57;7.53;;;1.85;;
21903;SDS011;11116;51.554;7.812;2022-09-16T08:48:34;5.38;;;1.60;;
21903;SDS011;11116;51.554;7.812;2022-09-16T08:51:10;6.38;;;1.67;;
21903;SDS011;11116;51.554;7.812;2022-09-16T08:53:42;4.88;;;1.58;;
21903;SDS011;11116;51.554;7.812;2022-09-16T08:56:13;4.93;;;1.77;;
21903;SDS011;11116;51.554;7.812;2022-09-16T08:58:44;4.25;;;1.77;;
21903;SDS011;11116;51.554;7.812;2022-09-16T09:01:15;5.32;;;1.70;;
21903;SDS011;11116;51.554;7.812;2022-09-16T09:03:46;5.47;;;1.67;;
21903;SDS011;11116;51.554;7.812;2022-09-16T09:06:17;3.05;;;2.42;;
21903;SDS011;11116;51.554;7.812;2022-09-16T09:09:12;4.32;;;1.95;;
21903;SDS011;11116;51.554;7.812;2022-09-16T09:11:48;1.88;;;1.65;;
21903;SDS011;11116;51.554;7.812;2022-09-16T09:14:25;4.28;;;1.80;;
21903;SDS011;11116;51.554;7.812;2022-09-16T09:17:04;3.47;;;1.92;;
21903;SDS011;11116;51.554;7.812;2022-09-16T09:19:39;3.05;;;2.08;;
21903;SDS011;11116;51.554;7.812;2022-09-16T09:22:19;2.83;;;1.65;;
21903;SDS011;11116;51.554;7.812;2022-09-16T09:25:02;3.20;;;1.70;;
21903;SDS011;11116;51.554;7.812;2022-09-16T09:27:47;4.50;;;1.65;;
21903;SDS011;11116;51.554;7.812;2022-09-16T09:30:26;2.55;;;1.40;;
21903;SDS011;11116;51.554;7.812;2022-09-16T09:33:03;6.55;;;1.50;;
21903;SDS011;11116;51.554;7.812;2022-09-16T09:35:50;8.82;;;1.70;;
21903;SDS011;11116;51.554;7.812;2022-09-16T09:38:44;5.50;;;1.30;;
21903;SDS011;11116;51.554;7.812;2022-09-16T09:41:21;5.03;;;1.85;;
21903;SDS011;11116;51.554;7.812;2022-09-16T09:43:51;4.68;;;2.20;;
21903;SDS011;11116;51.554;7.812;2022-09-16T09:46:24;5.38;;;1.20;;
21903;SDS011;11116;51.554;7.812;2022-09-16T09:48:59;3.08;;;1.50;;
21903;SDS011;11116;51.554;7.812;2022-09-16T09:51:35;4.65;;;1.25;;
21903;SDS011;11116;51.554;7.812;2022-09-16T09:54:11;3.58;;;1.17;;
21903;SDS011;11116;51.554;7.812;2022-09-16T09:56:46;3.97;;;1.20;;
21903;SDS011;11116;51.554;7.812;2022-09-16T09:59:18;4.53;;;1.25;;
21903;SDS011;11116;51.554;7.812;2022-09-16T10:01:53;6.68;;;1.27;;
21903;SDS011;11116;51.554;7.812;2022-09-16T10:04:22;2.95;;;0.90;;
21903;SDS011;11116;51.554;7.812;2022-09-16T10:06:49;4.57;;;1.20;;
21903;SDS011;11116;51.554;7.812;2022-09-16T10:09:18;3.58;;;1.08;;
21903;SDS011;11116;51.554;7.812;2022-09-16T10:11:47;3.88;;;1.17;;
21903;SDS011;11116;51.554;7.812;2022-09-16T10:14:21;4.88;;;1.10;;
21903;SDS011;11116;51.554;7.812;2022-09-16T10:16:51;2.80;;;0.82;;
21903;SDS011;11116;51.554;7.812;2022-09-16T10:19:21;5.32;;;0.93;;
21903;SDS011;11116;51.554;7.812;2022-09-16T10:21:50;2.90;;;1.20;;
21903;SDS011;11116;51.554;7.812;2022-09-16T10:24:26;4.15;;;1.17;;
21903;SDS011;11116;51.554;7.812;2022-09-16T10:26:58;6.40;;;1.00;;
21903;SDS011;11116;51.554;7.812;2022-09-16T10:29:27;3.30;;;1.17;;
21903;SDS011;11116;51.554;7.812;2022-09-16T10:31:55;7.53;;;0.82;;
21903;SDS011;11116;51.554;7.812;2022-09-16T10:34:26;4.60;;;2.00;;
21903;SDS011;11116;51.554;7.812;2022-09-16T10:36:57;4.60;;;1.20;;
21903;SDS011;11116;51.554;7.812;2022-09-16T10:39:26;3.85;;;0.82;;
21903;SDS011;11116;51.554;7.812;2022-09-16T10:41:55;4.32;;;0.88;;
21903;SDS011;11116;51.554;7.812;2022-09-16T10:44:22;4.47;;;1.10;;
21903;SDS011;11116;51.554;7.812;2022-09-16T10:46:55;2.63;;;0.93;;
21903;SDS011;11116;51.554;7.812;2022-09-16T10:49:26;9.38;;;1.42;;
21903;SDS011;11116;51.554;7.812;2022-09-16T10:52:08;4.50;;;0.80;;
21903;SDS011;11116;51.554;7.812;2022-09-16T10:54:41;4.28;;;1.13;;
21903;SDS011;11116;51.554;7.812;2022-09-16T10:57:18;4.82;;;1.08;;
21903;SDS011;11116;51.554;7.812;2022-09-16T10:59:54;2.70;;;0.73;;
21903;SDS011;11116;51.554;7.812;2022-09-16T11:02:31;13.50;;;1.05;;
21903;SDS011;11116;51.554;7.812;2022-09-16T11:05:15;6.75;;;1.05;;
21903;SDS011;11116;51.554;7.812;2022-09-16T11:07:52;4.38;;;0.90;;
21903;SDS011;11116;51.554;7.812;2022-09-16T11:10:30;4.13;;;1.30;;
21903;SDS011;11116;51.554;7.812;2022-09-16T11:13:16;6.43;;;1.20;;
21903;SDS011;11116;51.554;7.812;2022-09-16T11:15:54;1.38;;;0.57;;
21903;SDS011;11116;51.554;7.812;2022-09-16T11:18:34;5.03;;;0.73;;
21903;SDS011;11116;51.554;7.812;2022-09-16T11:21:15;2.03;;;0.60;;
21903;SDS011;11116;51.554;7.812;2022-09-16T11:23:59;1.83;;;0.60;;
21903;SDS011;11116;51.554;7.812;2022-09-16T11:26:38;1.75;;;0.40;;
21903;SDS011;11116;51.554;7.812;2022-09-16T11:29:18;2.95;;;0.80;;
21903;SDS011;11116;51.554;7.812;2022-09-16T11:31:56;1.35;;;0.52;;
21903;SDS011;11116;51.554;7.812;2022-09-16T11:34:36;2.35;;;0.73;;
21903;SDS011;11116;51.554;7.812;2022-09-16T11:37:14;0.85;;;0.60;;
21903;SDS011;11116;51.554;7.812;2022-09-16T11:39:57;0.55;;;0.40;;
21903;SDS011;11116;51.554;7.812;2022-09-16T11:42:33;4.20;;;0.80;;
21903;SDS011;11116;51.554;7.812;2022-09-16T11:45:07;1.13;;;0.68;;
21903;SDS011;11116;51.554;7.812;2022-09-16T11:47:47;2.90;;;1.40;;
21903;SDS011;11116;51.554;7.812;2022-09-16T11:50:29;2.42;;;0.60;;
21903;SDS011;11116;51.554;7.812;2022-09-16T11:56:10;1.92;;;0.47;;
21903;SDS011;11116;51.554;7.812;2022-09-16T11:58:42;1.80;;;0.40;;
21903;SDS011;11116;51.554;7.812;2022-09-16T12:01:13;1.45;;;0.60;;
21903;SDS011;11116;51.554;7.812;2022-09-16T12:03:50;2.17;;;0.50;;
21903;SDS011;11116;51.554;7.812;2022-09-16T12:06:22;1.92;;;0.63;;
21903;SDS011;11116;51.554;7.812;2022-09-16T12:08:53;1.70;;;0.80;;
21903;SDS011;11116;51.554;7.812;2022-09-16T12:11:26;1.45;;;0.60;;
21903;SDS011;11116;51.554;7.812;2022-09-16T12:14:00;4.72;;;1.08;;
21903;SDS011;11116;51.554;7.812;2022-09-16T12:16:35;5.40;;;0.88;;
21903;SDS011;11116;51.554;7.812;2022-09-16T12:19:09;4.88;;;1.02;;
21903;SDS011;11116;51.554;7.812;2022-09-16T12:21:43;2.88;;;0.65;;
21903;SDS011;11116;51.554;7.812;2022-09-16T12:24:16;4.00;;;0.98;;
21903;SDS011;11116;51.554;7.812;2022-09-16T12:26:51;1.33;;;0.60;;
21903;SDS011;11116;51.554;7.812;2022-09-16T12:29:25;3.85;;;0.88;;
21903;SDS011;11116;51.554;7.812;2022-09-16T12:31:56;1.63;;;0.57;;
21903;SDS011;11116;51.554;7.812;2022-09-16T12:34:30;4.35;;;0.75;;
21903;SDS011;11116;51.554;7.812;2022-09-16T12:37:04;1.70;;;0.70;;
21903;SDS011;11116;51.554;7.812;2022-09-16T12:39:40;5.32;;;0.73;;
21903;SDS011;11116;51.554;7.812;2022-09-16T12:42:36;1.90;;;0.60;;
21903;SDS011;11116;51.554;7.812;2022-09-16T12:45:42;1.80;;;0.82;;
21903;SDS011;11116;51.554;7.812;2022-09-16T12:48:26;1.98;;;0.68;;
21903;SDS011;11116;51.554;7.812;2022-09-16T12:51:23;3.00;;;0.75;;
21903;SDS011;11116;51.554;7.812;2022-09-16T12:54:07;3.88;;;1.30;;
21903;SDS011;11116;51.554;7.812;2022-09-16T12:59:51;3.63;;;0.60;;
21903;SDS011;11116;51.554;7.812;2022-09-16T13:02:38;0.63;;;0.40;;
21903;SDS011;11116;51.554;7.812;2022-09-16T13:05:11;2.63;;;0.40;;
21903;SDS011;11116;51.554;7.812;2022-09-16T13:07:46;0.73;;;0.60;;
21903;SDS011;11116;51.554;7.812;2022-09-16T13:10:18;2.53;;;0.82;;
21903;SDS011;11116;51.554;7.812;2022-09-16T13:12:50;6.43;;;0.95;;
21903;SDS011;11116;51.554;7.812;2022-09-16T13:15:23;4.80;;;0.82;;
21903;SDS011;11116;51.554;7.812;2022-09-16T13:17:52;3.30;;;0.80;;
21903;SDS011;11116;51.554;7.812;2022-09-16T13:20:21;1.98;;;0.68;;
21903;SDS011;11116;51.554;7.812;2022-09-16T13:22:58;2.05;;;0.70;;
21903;SDS011;11116;51.554;7.812;2022-09-16T13:25:34;4.55;;;0.88;;
21903;SDS011;11116;51.554;7.812;2022-09-16T13:28:22;3.47;;;0.70;;
21903;SDS011;11116;51.554;7.812;2022-09-16T13:30:50;1.92;;;0.70;;
21903;SDS011;11116;51.554;7.812;2022-09-16T13:33:20;2.80;;;0.60;;
21903;SDS011;11116;51.554;7.812;2022-09-16T13:36:00;2.95;;;0.60;;
21903;SDS011;11116;51.554;7.812;2022-09-16T13:38:39;1.98;;;0.63;;
21903;SDS011;11116;51.554;7.812;2022-09-16T13:41:10;0.50;;;0.43;;
21903;SDS011;11116;51.554;7.812;2022-09-16T13:43:51;3.63;;;0.70;;
21903;SDS011;11116;51.554;7.812;2022-09-16T13:46:30;5.75;;;0.75;;
21903;SDS011;11116;51.554;7.812;2022-09-16T13:49:03;4.60;;;0.73;;
21903;SDS011;11116;51.554;7.812;2022-09-16T13:51:37;1.05;;;0.73;;
21903;SDS011;11116;51.554;7.812;2022-09-16T13:54:16;3.50;;;0.77;;
21903;SDS011;11116;51.554;7.812;2022-09-16T13:56:50;1.13;;;0.60;;
21903;SDS011;11116;51.554;7.812;2022-09-16T13:59:54;2.42;;;0.80;;
21903;SDS011;11116;51.554;7.812;2022-09-16T14:02:34;4.95;;;0.70;;
21903;SDS011;11116;51.554;7.812;2022-09-16T14:08:19;5.43;;;0.80;;
21903;SDS011;11116;51.554;7.812;2022-09-16T14:10:54;5.28;;;1.02;;
21903;SDS011;11116;51.554;7.812;2022-09-16T14:13:31;1.58;;;0.73;;
21903;SDS011;11116;51.554;7.812;2022-09-16T14:16:08;1.42;;;0.90;;
21903;SDS011;11116;51.554;7.812;2022-09-16T14:18:43;3.65;;;1.05;;
21903;SDS011;11116;51.554;7.812;2022-09-16T14:21:19;2.42;;;0.88;;
21903;SDS011;11116;51.554;7.812;2022-09-16T14:23:48;5.80;;;1.40;;
21903;SDS011;11116;51.554;7.812;2022-09-16T14:26:16;0.90;;;0.68;;
21903;SDS011;11116;51.554;7.812;2022-09-16T14:28:46;3.50;;;0.80;;
21903;SDS011;11116;51.554;7.812;2022-09-16T14:31:14;3.90;;;0.80;;
21903;SDS011;11116;51.554;7.812;2022-09-16T14:33:45;3.45;;;0.70;;
21903;SDS011;11116;51.554;7.812;2022-09-16T14:36:17;4.72;;;1.13;;
21903;SDS011;11116;51.554;7.812;2022-09-16T14:38:47;5.68;;;1.17;;
21903;SDS011;11116;51.554;7.812;2022-09-16T14:41:22;2.20;;;1.33;;
21903;SDS011;11116;51.554;7.812;2022-09-16T14:43:53;2.45;;;1.23;;
21903;SDS011;11116;51.554;7.812;2022-09-16T14:46:26;8.20;;;1.15;;
21903;SDS011;11116;51.554;7.812;2022-09-16T14:48:53;3.33;;;0.95;;
21903;SDS011;11116;51.554;7.812;2022-09-16T14:51:20;5.18;;;1.20;;
21903;SDS011;11116;51.554;7.812;2022-09-16T14:53:54;2.28;;;0.88;;
21903;SDS011;11116;51.554;7.812;2022-09-16T14:56:22;4.00;;;0.90;;
21903;SDS011;11116;51.554;7.812;2022-09-16T14:58:50;1.33;;;0.82;;
21903;SDS011;11116;51.554;7.812;2022-09-16T15:01:21;2.92;;;0.80;;
21903;SDS011;11116;51.554;7.812;2022-09-16T15:03:52;4.15;;;1.08;;
21903;SDS011;11116;51.554;7.812;2022-09-16T15:06:24;1.90;;;1.10;;
21903;SDS011;11116;51.554;7.812;2022-09-16T15:08:54;1.98;;;0.77;;
21903;SDS011;11116;51.554;7.812;2022-09-16T15:11:26;1.67;;;0.90;;
21903;SDS011;11116;51.554;7.812;2022-09-16T15:13:57;3.78;;;1.10;;
21903;SDS011;11116;51.554;7.812;2022-09-16T15:16:24;1.65;;;0.75;;
21903;SDS011;11116;51.554;7.812;2022-09-16T15:18:53;4.40;;;1.17;;
21903;SDS011;11116;51.554;7.812;2022-09-16T15:21:23;2.00;;;0.85;;
21903;SDS011;11116;51.554;7.812;2022-09-16T15:23:53;9.68;;;1.40;;
21903;SDS011;11116;51.554;7.812;2022-09-16T15:26:22;3.65;;;1.02;;
21903;SDS011;11116;51.554;7.812;2022-09-16T15:28:51;8.27;;;0.93;;
21903;SDS011;11116;51.554;7.812;2022-09-16T15:31:31;3.08;;;0.80;;